Yasawa-I-Rara, Fiji
Current Conditions -  °F | °C
As of 1:00 PM on Thursday 18 Dec 2014 (Local Time) from NFFN Reporting Station
Few Clouds Few Clouds  
Wind Chill: 91°   Ceiling: Unl
Heat Index: 102°   Visibility: 6mi
Dew Point: 75°   Wind: 17mph
Humidity: 59%   Direction: 340°NNW
Pressure: 29.83"   Gusts: NA
Location:  16.7°S, 177.58°E
Report Text: NFFN 180100Z 34015KT 9999 FEW028 33/24 Q1010 NOSIG
Loading
Personal Weather Stations






























Interactive Weather Map New forecast layout! Learn more

10-Day Weather Forecast

Advertisements
Track Severe Weather on mobile